sensor_id;sensor_type;location;lat;lon;timestamp;P1;durP1;ratioP1;P2;durP2;ratioP2
49910;SDS011;35803;53.096;5.844;2023-05-15T00:00:02;28.38;;;14.95;;
49910;SDS011;35803;53.096;5.844;2023-05-15T00:02:49;25.73;;;14.02;;
49910;SDS011;35803;53.096;5.844;2023-05-15T00:05:39;27.00;;;14.77;;
49910;SDS011;35803;53.096;5.844;2023-05-15T00:08:23;27.75;;;13.85;;
49910;SDS011;35803;53.096;5.844;2023-05-15T00:11:08;30.95;;;14.35;;
49910;SDS011;35803;53.096;5.844;2023-05-15T00:13:52;25.02;;;14.07;;
49910;SDS011;35803;53.096;5.844;2023-05-15T00:16:37;29.25;;;14.73;;
49910;SDS011;35803;53.096;5.844;2023-05-15T00:19:21;27.85;;;13.88;;
49910;SDS011;35803;53.096;5.844;2023-05-15T00:22:05;25.90;;;13.05;;
49910;SDS011;35803;53.096;5.844;2023-05-15T00:24:50;28.25;;;13.63;;
49910;SDS011;35803;53.096;5.844;2023-05-15T00:27:34;25.05;;;12.82;;
49910;SDS011;35803;53.096;5.844;2023-05-15T00:30:20;25.45;;;13.55;;
49910;SDS011;35803;53.096;5.844;2023-05-15T00:33:04;29.17;;;14.55;;
49910;SDS011;35803;53.096;5.844;2023-05-15T00:35:48;26.13;;;13.77;;
49910;SDS011;35803;53.096;5.844;2023-05-15T00:38:32;29.20;;;13.88;;
49910;SDS011;35803;53.096;5.844;2023-05-15T00:41:17;25.35;;;14.13;;
49910;SDS011;35803;53.096;5.844;2023-05-15T00:44:01;26.48;;;14.00;;
49910;SDS011;35803;53.096;5.844;2023-05-15T00:46:45;28.30;;;13.65;;
49910;SDS011;35803;53.096;5.844;2023-05-15T00:49:30;27.85;;;13.82;;
49910;SDS011;35803;53.096;5.844;2023-05-15T00:52:18;27.08;;;13.80;;
49910;SDS011;35803;53.096;5.844;2023-05-15T00:55:03;31.13;;;14.75;;
49910;SDS011;35803;53.096;5.844;2023-05-15T00:57:49;28.27;;;14.13;;
49910;SDS011;35803;53.096;5.844;2023-05-15T01:00:34;27.92;;;13.25;;
49910;SDS011;35803;53.096;5.844;2023-05-15T01:03:19;31.88;;;14.57;;
49910;SDS011;35803;53.096;5.844;2023-05-15T01:06:03;26.42;;;13.88;;
49910;SDS011;35803;53.096;5.844;2023-05-15T01:08:48;26.73;;;13.82;;
49910;SDS011;35803;53.096;5.844;2023-05-15T01:11:32;35.63;;;14.60;;
49910;SDS011;35803;53.096;5.844;2023-05-15T01:14:19;29.75;;;15.25;;
49910;SDS011;35803;53.096;5.844;2023-05-15T01:17:03;28.52;;;15.15;;
49910;SDS011;35803;53.096;5.844;2023-05-15T01:19:47;31.90;;;14.73;;
49910;SDS011;35803;53.096;5.844;2023-05-15T01:22:39;30.77;;;14.90;;
49910;SDS011;35803;53.096;5.844;2023-05-15T01:28:33;30.13;;;15.60;;
49910;SDS011;35803;53.096;5.844;2023-05-15T01:31:22;30.50;;;14.00;;
49910;SDS011;35803;53.096;5.844;2023-05-15T01:34:07;30.33;;;15.20;;
49910;SDS011;35803;53.096;5.844;2023-05-15T01:36:55;28.33;;;14.38;;
49910;SDS011;35803;53.096;5.844;2023-05-15T01:39:40;27.10;;;14.38;;
49910;SDS011;35803;53.096;5.844;2023-05-15T01:42:26;31.73;;;15.02;;
49910;SDS011;35803;53.096;5.844;2023-05-15T01:45:14;28.83;;;14.27;;
49910;SDS011;35803;53.096;5.844;2023-05-15T01:47:59;26.30;;;13.52;;
49910;SDS011;35803;53.096;5.844;2023-05-15T01:50:44;25.25;;;13.82;;
49910;SDS011;35803;53.096;5.844;2023-05-15T01:53:31;28.23;;;13.50;;
49910;SDS011;35803;53.096;5.844;2023-05-15T01:56:18;25.73;;;12.13;;
49910;SDS011;35803;53.096;5.844;2023-05-15T01:59:04;23.48;;;11.93;;
49910;SDS011;35803;53.096;5.844;2023-05-15T02:01:48;24.00;;;11.98;;
49910;SDS011;35803;53.096;5.844;2023-05-15T02:04:33;26.20;;;11.90;;
49910;SDS011;35803;53.096;5.844;2023-05-15T02:07:27;25.75;;;11.98;;
49910;SDS011;35803;53.096;5.844;2023-05-15T02:10:12;27.08;;;13.38;;
49910;SDS011;35803;53.096;5.844;2023-05-15T02:12:56;25.73;;;12.68;;
49910;SDS011;35803;53.096;5.844;2023-05-15T02:15:41;22.48;;;11.98;;
49910;SDS011;35803;53.096;5.844;2023-05-15T02:18:26;25.10;;;12.40;;
49910;SDS011;35803;53.096;5.844;2023-05-15T02:21:11;23.65;;;12.10;;
49910;SDS011;35803;53.096;5.844;2023-05-15T02:23:55;24.30;;;12.38;;
49910;SDS011;35803;53.096;5.844;2023-05-15T02:29:35;24.95;;;12.05;;
49910;SDS011;35803;53.096;5.844;2023-05-15T02:32:28;21.98;;;12.52;;
49910;SDS011;35803;53.096;5.844;2023-05-15T02:38:07;20.85;;;11.65;;
49910;SDS011;35803;53.096;5.844;2023-05-15T02:40:54;27.00;;;12.25;;
49910;SDS011;35803;53.096;5.844;2023-05-15T02:43:39;23.08;;;12.73;;
49910;SDS011;35803;53.096;5.844;2023-05-15T02:46:23;21.23;;;12.00;;
49910;SDS011;35803;53.096;5.844;2023-05-15T02:49:11;22.98;;;12.23;;
49910;SDS011;35803;53.096;5.844;2023-05-15T02:51:56;28.10;;;13.55;;
49910;SDS011;35803;53.096;5.844;2023-05-15T02:54:40;26.70;;;13.23;;
49910;SDS011;35803;53.096;5.844;2023-05-15T02:57:24;24.38;;;12.30;;
49910;SDS011;35803;53.096;5.844;2023-05-15T03:00:09;26.70;;;13.43;;
49910;SDS011;35803;53.096;5.844;2023-05-15T03:02:54;23.80;;;13.07;;
49910;SDS011;35803;53.096;5.844;2023-05-15T03:05:38;22.92;;;11.55;;
49910;SDS011;35803;53.096;5.844;2023-05-15T03:08:23;23.92;;;12.52;;
49910;SDS011;35803;53.096;5.844;2023-05-15T03:11:07;23.63;;;13.38;;
49910;SDS011;35803;53.096;5.844;2023-05-15T03:13:51;24.60;;;13.05;;
49910;SDS011;35803;53.096;5.844;2023-05-15T03:16:35;24.55;;;12.70;;
49910;SDS011;35803;53.096;5.844;2023-05-15T03:19:21;25.08;;;13.05;;
49910;SDS011;35803;53.096;5.844;2023-05-15T03:22:05;24.63;;;12.98;;
49910;SDS011;35803;53.096;5.844;2023-05-15T03:24:50;25.65;;;13.35;;
49910;SDS011;35803;53.096;5.844;2023-05-15T03:27:44;26.38;;;13.35;;
49910;SDS011;35803;53.096;5.844;2023-05-15T03:30:29;23.50;;;12.80;;
49910;SDS011;35803;53.096;5.844;2023-05-15T03:33:13;27.33;;;13.52;;
49910;SDS011;35803;53.096;5.844;2023-05-15T03:35:57;25.77;;;13.80;;
49910;SDS011;35803;53.096;5.844;2023-05-15T03:38:41;26.88;;;13.48;;
49910;SDS011;35803;53.096;5.844;2023-05-15T03:41:27;27.38;;;14.10;;
49910;SDS011;35803;53.096;5.844;2023-05-15T03:44:11;25.60;;;14.05;;
49910;SDS011;35803;53.096;5.844;2023-05-15T03:46:55;26.65;;;14.18;;
49910;SDS011;35803;53.096;5.844;2023-05-15T03:49:40;25.33;;;13.93;;
49910;SDS011;35803;53.096;5.844;2023-05-15T03:52:24;26.98;;;13.45;;
49910;SDS011;35803;53.096;5.844;2023-05-15T03:55:08;27.20;;;14.65;;
49910;SDS011;35803;53.096;5.844;2023-05-15T03:57:52;28.42;;;13.65;;
49910;SDS011;35803;53.096;5.844;2023-05-15T04:00:37;22.25;;;12.95;;
49910;SDS011;35803;53.096;5.844;2023-05-15T04:03:21;24.63;;;13.43;;
49910;SDS011;35803;53.096;5.844;2023-05-15T04:06:08;30.67;;;14.48;;
49910;SDS011;35803;53.096;5.844;2023-05-15T04:08:52;28.60;;;13.95;;
49910;SDS011;35803;53.096;5.844;2023-05-15T04:11:36;28.42;;;13.77;;
49910;SDS011;35803;53.096;5.844;2023-05-15T04:14:20;26.85;;;13.20;;
49910;SDS011;35803;53.096;5.844;2023-05-15T04:17:05;28.63;;;13.38;;
49910;SDS011;35803;53.096;5.844;2023-05-15T04:19:49;30.80;;;14.45;;
49910;SDS011;35803;53.096;5.844;2023-05-15T04:22:33;27.70;;;14.05;;
49910;SDS011;35803;53.096;5.844;2023-05-15T04:25:17;29.02;;;14.50;;
49910;SDS011;35803;53.096;5.844;2023-05-15T04:28:03;27.67;;;13.60;;
49910;SDS011;35803;53.096;5.844;2023-05-15T04:30:47;27.13;;;13.63;;
49910;SDS011;35803;53.096;5.844;2023-05-15T04:33:31;29.83;;;14.77;;
49910;SDS011;35803;53.096;5.844;2023-05-15T04:36:15;30.17;;;14.52;;
49910;SDS011;35803;53.096;5.844;2023-05-15T04:39:00;31.00;;;14.90;;
49910;SDS011;35803;53.096;5.844;2023-05-15T04:41:46;29.08;;;14.20;;
49910;SDS011;35803;53.096;5.844;2023-05-15T04:44:30;29.92;;;15.88;;
49910;SDS011;35803;53.096;5.844;2023-05-15T04:47:17;30.13;;;14.00;;
49910;SDS011;35803;53.096;5.844;2023-05-15T04:50:01;33.58;;;15.32;;
49910;SDS011;35803;53.096;5.844;2023-05-15T04:52:45;31.40;;;15.02;;
49910;SDS011;35803;53.096;5.844;2023-05-15T04:55:29;30.65;;;14.40;;
49910;SDS011;35803;53.096;5.844;2023-05-15T04:58:14;25.80;;;14.00;;
49910;SDS011;35803;53.096;5.844;2023-05-15T05:00:58;26.25;;;13.32;;
49910;SDS011;35803;53.096;5.844;2023-05-15T05:03:43;23.98;;;12.80;;
49910;SDS011;35803;53.096;5.844;2023-05-15T05:06:29;28.20;;;13.65;;
49910;SDS011;35803;53.096;5.844;2023-05-15T05:09:13;26.17;;;13.95;;
49910;SDS011;35803;53.096;5.844;2023-05-15T05:11:58;29.63;;;14.48;;
49910;SDS011;35803;53.096;5.844;2023-05-15T05:14:42;30.33;;;14.77;;
49910;SDS011;35803;53.096;5.844;2023-05-15T05:17:28;26.27;;;13.60;;
49910;SDS011;35803;53.096;5.844;2023-05-15T05:20:15;27.35;;;13.77;;
49910;SDS011;35803;53.096;5.844;2023-05-15T05:22:59;26.02;;;13.93;;
49910;SDS011;35803;53.096;5.844;2023-05-15T05:25:43;25.58;;;13.98;;
49910;SDS011;35803;53.096;5.844;2023-05-15T05:28:28;28.60;;;14.23;;
49910;SDS011;35803;53.096;5.844;2023-05-15T05:31:14;25.98;;;14.15;;
49910;SDS011;35803;53.096;5.844;2023-05-15T05:33:58;26.50;;;13.55;;
49910;SDS011;35803;53.096;5.844;2023-05-15T05:36:42;23.08;;;13.25;;
49910;SDS011;35803;53.096;5.844;2023-05-15T05:39:26;23.25;;;12.77;;
49910;SDS011;35803;53.096;5.844;2023-05-15T05:42:11;25.52;;;13.77;;
49910;SDS011;35803;53.096;5.844;2023-05-15T05:44:55;22.92;;;12.75;;
49910;SDS011;35803;53.096;5.844;2023-05-15T05:47:39;26.67;;;14.10;;
49910;SDS011;35803;53.096;5.844;2023-05-15T05:50:24;22.58;;;13.65;;
49910;SDS011;35803;53.096;5.844;2023-05-15T05:53:08;21.30;;;12.48;;
49910;SDS011;35803;53.096;5.844;2023-05-15T05:55:52;23.55;;;13.55;;
49910;SDS011;35803;53.096;5.844;2023-05-15T05:58:37;24.38;;;14.18;;
49910;SDS011;35803;53.096;5.844;2023-05-15T06:01:21;25.45;;;14.32;;
49910;SDS011;35803;53.096;5.844;2023-05-15T06:04:05;21.55;;;13.43;;
49910;SDS011;35803;53.096;5.844;2023-05-15T06:06:49;23.25;;;13.30;;
49910;SDS011;35803;53.096;5.844;2023-05-15T06:09:33;25.02;;;13.68;;
49910;SDS011;35803;53.096;5.844;2023-05-15T06:12:17;22.45;;;13.23;;
49910;SDS011;35803;53.096;5.844;2023-05-15T06:15:02;23.77;;;14.27;;
49910;SDS011;35803;53.096;5.844;2023-05-15T06:17:49;22.20;;;12.63;;
49910;SDS011;35803;53.096;5.844;2023-05-15T06:20:33;22.13;;;14.05;;
49910;SDS011;35803;53.096;5.844;2023-05-15T06:23:21;22.85;;;13.43;;
49910;SDS011;35803;53.096;5.844;2023-05-15T06:26:05;20.80;;;13.60;;
49910;SDS011;35803;53.096;5.844;2023-05-15T06:28:50;20.25;;;13.00;;
49910;SDS011;35803;53.096;5.844;2023-05-15T06:31:36;18.15;;;11.77;;
49910;SDS011;35803;53.096;5.844;2023-05-15T06:34:20;17.15;;;10.95;;
49910;SDS011;35803;53.096;5.844;2023-05-15T06:37:05;15.85;;;11.05;;
49910;SDS011;35803;53.096;5.844;2023-05-15T06:39:51;16.95;;;11.13;;
49910;SDS011;35803;53.096;5.844;2023-05-15T06:42:36;17.83;;;10.98;;
49910;SDS011;35803;53.096;5.844;2023-05-15T06:45:20;18.63;;;10.93;;
49910;SDS011;35803;53.096;5.844;2023-05-15T06:48:04;14.40;;;10.15;;
49910;SDS011;35803;53.096;5.844;2023-05-15T06:50:51;15.38;;;9.93;;
49910;SDS011;35803;53.096;5.844;2023-05-15T06:53:36;16.30;;;9.73;;
49910;SDS011;35803;53.096;5.844;2023-05-15T06:56:23;14.50;;;9.93;;
49910;SDS011;35803;53.096;5.844;2023-05-15T06:59:07;14.80;;;9.80;;
49910;SDS011;35803;53.096;5.844;2023-05-15T07:01:51;16.17;;;9.77;;
49910;SDS011;35803;53.096;5.844;2023-05-15T07:04:35;15.45;;;10.02;;
49910;SDS011;35803;53.096;5.844;2023-05-15T07:07:19;12.98;;;9.82;;
49910;SDS011;35803;53.096;5.844;2023-05-15T07:10:03;18.13;;;10.98;;
49910;SDS011;35803;53.096;5.844;2023-05-15T07:12:48;16.48;;;11.18;;
49910;SDS011;35803;53.096;5.844;2023-05-15T07:15:36;16.90;;;10.50;;
49910;SDS011;35803;53.096;5.844;2023-05-15T07:18:19;17.45;;;11.68;;
49910;SDS011;35803;53.096;5.844;2023-05-15T07:21:07;15.00;;;11.10;;
49910;SDS011;35803;53.096;5.844;2023-05-15T07:23:51;15.60;;;11.20;;
49910;SDS011;35803;53.096;5.844;2023-05-15T07:26:35;16.65;;;11.73;;
49910;SDS011;35803;53.096;5.844;2023-05-15T07:29:23;17.90;;;12.25;;
49910;SDS011;35803;53.096;5.844;2023-05-15T07:32:08;21.60;;;13.73;;
49910;SDS011;35803;53.096;5.844;2023-05-15T07:34:52;18.25;;;11.73;;
49910;SDS011;35803;53.096;5.844;2023-05-15T07:37:45;19.65;;;12.75;;
49910;SDS011;35803;53.096;5.844;2023-05-15T07:43:14;18.88;;;12.13;;
49910;SDS011;35803;53.096;5.844;2023-05-15T07:46:01;17.17;;;12.27;;
49910;SDS011;35803;53.096;5.844;2023-05-15T07:48:45;15.95;;;11.57;;
49910;SDS011;35803;53.096;5.844;2023-05-15T07:51:29;17.17;;;12.07;;
49910;SDS011;35803;53.096;5.844;2023-05-15T07:54:13;18.98;;;13.20;;
49910;SDS011;35803;53.096;5.844;2023-05-15T07:56:57;17.85;;;12.23;;
49910;SDS011;35803;53.096;5.844;2023-05-15T07:59:42;18.30;;;14.07;;
49910;SDS011;35803;53.096;5.844;2023-05-15T08:02:26;18.55;;;12.98;;
49910;SDS011;35803;53.096;5.844;2023-05-15T08:05:11;15.68;;;11.77;;
49910;SDS011;35803;53.096;5.844;2023-05-15T08:07:57;18.48;;;12.52;;
49910;SDS011;35803;53.096;5.844;2023-05-15T08:10:43;18.05;;;12.00;;
49910;SDS011;35803;53.096;5.844;2023-05-15T08:13:26;17.45;;;12.98;;
49910;SDS011;35803;53.096;5.844;2023-05-15T08:16:11;20.33;;;13.60;;
49910;SDS011;35803;53.096;5.844;2023-05-15T08:18:55;18.88;;;12.82;;
49910;SDS011;35803;53.096;5.844;2023-05-15T08:21:43;17.20;;;12.05;;
49910;SDS011;35803;53.096;5.844;2023-05-15T08:24:27;15.10;;;10.75;;
49910;SDS011;35803;53.096;5.844;2023-05-15T08:27:12;17.88;;;12.60;;
49910;SDS011;35803;53.096;5.844;2023-05-15T08:29:56;19.05;;;11.90;;
49910;SDS011;35803;53.096;5.844;2023-05-15T08:32:41;14.38;;;10.38;;
49910;SDS011;35803;53.096;5.844;2023-05-15T08:35:26;14.55;;;10.65;;
49910;SDS011;35803;53.096;5.844;2023-05-15T08:38:10;14.82;;;10.52;;
49910;SDS011;35803;53.096;5.844;2023-05-15T08:40:55;15.10;;;10.40;;
49910;SDS011;35803;53.096;5.844;2023-05-15T08:43:43;13.77;;;10.43;;
49910;SDS011;35803;53.096;5.844;2023-05-15T08:46:29;15.23;;;9.90;;
49910;SDS011;35803;53.096;5.844;2023-05-15T08:52:26;14.30;;;10.05;;
49910;SDS011;35803;53.096;5.844;2023-05-15T08:55:16;11.88;;;9.50;;
49910;SDS011;35803;53.096;5.844;2023-05-15T08:58:00;10.55;;;9.05;;
49910;SDS011;35803;53.096;5.844;2023-05-15T09:00:44;11.45;;;8.52;;
49910;SDS011;35803;53.096;5.844;2023-05-15T09:03:28;9.52;;;7.80;;
49910;SDS011;35803;53.096;5.844;2023-05-15T09:06:13;12.52;;;8.38;;
49910;SDS011;35803;53.096;5.844;2023-05-15T09:08:58;10.80;;;8.18;;
49910;SDS011;35803;53.096;5.844;2023-05-15T09:11:44;9.95;;;7.60;;
49910;SDS011;35803;53.096;5.844;2023-05-15T09:14:29;10.90;;;7.60;;
49910;SDS011;35803;53.096;5.844;2023-05-15T09:17:14;11.60;;;8.38;;
49910;SDS011;35803;53.096;5.844;2023-05-15T09:19:57;9.50;;;8.00;;
49910;SDS011;35803;53.096;5.844;2023-05-15T09:22:41;10.90;;;8.27;;
49910;SDS011;35803;53.096;5.844;2023-05-15T09:28:24;12.80;;;8.80;;
49910;SDS011;35803;53.096;5.844;2023-05-15T09:31:10;12.18;;;9.52;;
49910;SDS011;35803;53.096;5.844;2023-05-15T09:33:58;12.23;;;10.07;;
49910;SDS011;35803;53.096;5.844;2023-05-15T09:36:49;14.77;;;10.35;;
49910;SDS011;35803;53.096;5.844;2023-05-15T09:39:39;12.80;;;9.52;;
49910;SDS011;35803;53.096;5.844;2023-05-15T09:42:25;16.63;;;10.27;;
49910;SDS011;35803;53.096;5.844;2023-05-15T09:45:15;13.02;;;9.80;;
49910;SDS011;35803;53.096;5.844;2023-05-15T09:48:04;14.02;;;10.07;;
49910;SDS011;35803;53.096;5.844;2023-05-15T09:50:48;13.00;;;9.60;;
49910;SDS011;35803;53.096;5.844;2023-05-15T09:53:33;13.48;;;9.88;;
49910;SDS011;35803;53.096;5.844;2023-05-15T09:56:17;10.00;;;8.27;;
49910;SDS011;35803;53.096;5.844;2023-05-15T09:59:01;13.77;;;9.18;;
49910;SDS011;35803;53.096;5.844;2023-05-15T10:01:46;10.52;;;8.32;;
49910;SDS011;35803;53.096;5.844;2023-05-15T10:04:37;12.13;;;8.68;;
49910;SDS011;35803;53.096;5.844;2023-05-15T10:07:31;11.38;;;8.73;;
49910;SDS011;35803;53.096;5.844;2023-05-15T10:10:19;12.82;;;7.88;;
49910;SDS011;35803;53.096;5.844;2023-05-15T10:13:06;9.68;;;7.68;;
49910;SDS011;35803;53.096;5.844;2023-05-15T10:15:52;11.45;;;7.60;;
49910;SDS011;35803;53.096;5.844;2023-05-15T10:18:36;12.13;;;8.77;;
49910;SDS011;35803;53.096;5.844;2023-05-15T10:21:21;10.30;;;8.07;;
49910;SDS011;35803;53.096;5.844;2023-05-15T10:24:06;8.95;;;8.00;;
49910;SDS011;35803;53.096;5.844;2023-05-15T10:26:51;9.90;;;7.63;;
49910;SDS011;35803;53.096;5.844;2023-05-15T10:29:38;9.23;;;8.00;;
49910;SDS011;35803;53.096;5.844;2023-05-15T10:32:23;11.23;;;8.32;;
49910;SDS011;35803;53.096;5.844;2023-05-15T10:35:14;11.35;;;8.68;;
49910;SDS011;35803;53.096;5.844;2023-05-15T10:37:59;12.18;;;8.93;;
49910;SDS011;35803;53.096;5.844;2023-05-15T10:40:47;11.90;;;8.35;;
49910;SDS011;35803;53.096;5.844;2023-05-15T10:43:32;8.88;;;7.78;;
49910;SDS011;35803;53.096;5.844;2023-05-15T10:46:21;9.73;;;7.95;;
49910;SDS011;35803;53.096;5.844;2023-05-15T10:49:06;12.05;;;7.90;;
49910;SDS011;35803;53.096;5.844;2023-05-15T10:51:51;10.82;;;8.15;;
49910;SDS011;35803;53.096;5.844;2023-05-15T10:54:35;12.23;;;8.50;;
49910;SDS011;35803;53.096;5.844;2023-05-15T10:57:20;12.07;;;7.53;;
49910;SDS011;35803;53.096;5.844;2023-05-15T11:00:24;10.55;;;7.38;;
49910;SDS011;35803;53.096;5.844;2023-05-15T11:03:15;10.73;;;7.00;;
49910;SDS011;35803;53.096;5.844;2023-05-15T11:06:27;10.32;;;7.10;;
49910;SDS011;35803;53.096;5.844;2023-05-15T11:12:10;10.10;;;7.43;;
49910;SDS011;35803;53.096;5.844;2023-05-15T11:17:41;10.23;;;7.78;;
49910;SDS011;35803;53.096;5.844;2023-05-15T11:23:38;8.35;;;7.22;;
49910;SDS011;35803;53.096;5.844;2023-05-15T11:26:33;8.10;;;6.53;;
49910;SDS011;35803;53.096;5.844;2023-05-15T11:29:17;10.65;;;8.00;;
49910;SDS011;35803;53.096;5.844;2023-05-15T11:32:02;8.57;;;7.15;;
49910;SDS011;35803;53.096;5.844;2023-05-15T11:34:46;8.27;;;6.53;;
49910;SDS011;35803;53.096;5.844;2023-05-15T11:37:35;9.18;;;6.10;;
49910;SDS011;35803;53.096;5.844;2023-05-15T11:40:31;7.43;;;6.03;;
49910;SDS011;35803;53.096;5.844;2023-05-15T11:43:20;7.18;;;6.03;;
49910;SDS011;35803;53.096;5.844;2023-05-15T11:46:09;8.63;;;6.60;;
49910;SDS011;35803;53.096;5.844;2023-05-15T11:48:53;9.05;;;6.13;;
49910;SDS011;35803;53.096;5.844;2023-05-15T11:51:37;9.73;;;6.32;;
49910;SDS011;35803;53.096;5.844;2023-05-15T11:54:26;8.95;;;6.22;;
49910;SDS011;35803;53.096;5.844;2023-05-15T11:57:10;8.25;;;5.72;;
49910;SDS011;35803;53.096;5.844;2023-05-15T11:59:55;7.63;;;5.70;;
49910;SDS011;35803;53.096;5.844;2023-05-15T12:02:39;10.23;;;6.00;;
49910;SDS011;35803;53.096;5.844;2023-05-15T12:05:23;7.90;;;5.85;;
49910;SDS011;35803;53.096;5.844;2023-05-15T12:08:10;7.47;;;6.22;;
49910;SDS011;35803;53.096;5.844;2023-05-15T12:10:58;7.40;;;6.25;;
49910;SDS011;35803;53.096;5.844;2023-05-15T12:13:43;6.90;;;6.18;;
49910;SDS011;35803;53.096;5.844;2023-05-15T12:19:32;12.52;;;7.03;;
49910;SDS011;35803;53.096;5.844;2023-05-15T12:22:17;9.55;;;6.95;;
49910;SDS011;35803;53.096;5.844;2023-05-15T12:25:02;12.77;;;8.52;;
49910;SDS011;35803;53.096;5.844;2023-05-15T12:27:46;12.90;;;8.30;;
49910;SDS011;35803;53.096;5.844;2023-05-15T12:30:33;14.77;;;9.85;;
49910;SDS011;35803;53.096;5.844;2023-05-15T12:33:21;13.52;;;8.77;;
49910;SDS011;35803;53.096;5.844;2023-05-15T12:36:09;15.52;;;10.27;;
49910;SDS011;35803;53.096;5.844;2023-05-15T12:38:53;13.73;;;9.40;;
49910;SDS011;35803;53.096;5.844;2023-05-15T12:41:38;14.80;;;9.93;;
49910;SDS011;35803;53.096;5.844;2023-05-15T12:44:22;17.15;;;9.90;;
49910;SDS011;35803;53.096;5.844;2023-05-15T12:47:11;16.00;;;10.18;;
49910;SDS011;35803;53.096;5.844;2023-05-15T12:49:56;15.38;;;10.32;;
49910;SDS011;35803;53.096;5.844;2023-05-15T12:55:38;16.23;;;10.20;;
49910;SDS011;35803;53.096;5.844;2023-05-15T12:58:23;17.75;;;11.15;;
49910;SDS011;35803;53.096;5.844;2023-05-15T13:01:08;15.00;;;9.38;;
49910;SDS011;35803;53.096;5.844;2023-05-15T13:03:52;15.55;;;9.35;;
49910;SDS011;35803;53.096;5.844;2023-05-15T13:06:41;10.90;;;8.30;;
49910;SDS011;35803;53.096;5.844;2023-05-15T13:09:25;13.68;;;8.93;;
49910;SDS011;35803;53.096;5.844;2023-05-15T13:12:10;12.50;;;7.85;;
49910;SDS011;35803;53.096;5.844;2023-05-15T13:14:55;11.90;;;7.70;;
49910;SDS011;35803;53.096;5.844;2023-05-15T13:17:39;11.32;;;7.25;;
49910;SDS011;35803;53.096;5.844;2023-05-15T13:20:25;11.75;;;7.47;;
49910;SDS011;35803;53.096;5.844;2023-05-15T13:23:11;11.45;;;7.28;;
49910;SDS011;35803;53.096;5.844;2023-05-15T13:25:58;9.45;;;6.93;;
49910;SDS011;35803;53.096;5.844;2023-05-15T13:28:43;10.18;;;6.93;;
49910;SDS011;35803;53.096;5.844;2023-05-15T13:31:31;11.77;;;7.32;;
49910;SDS011;35803;53.096;5.844;2023-05-15T13:34:17;11.02;;;7.38;;
49910;SDS011;35803;53.096;5.844;2023-05-15T13:37:01;11.45;;;7.32;;
49910;SDS011;35803;53.096;5.844;2023-05-15T13:39:45;12.50;;;7.78;;
49910;SDS011;35803;53.096;5.844;2023-05-15T13:42:31;11.85;;;7.82;;
49910;SDS011;35803;53.096;5.844;2023-05-15T13:48:19;10.50;;;7.50;;
49910;SDS011;35803;53.096;5.844;2023-05-15T13:51:04;10.45;;;6.97;;
49910;SDS011;35803;53.096;5.844;2023-05-15T13:53:49;10.35;;;7.20;;
49910;SDS011;35803;53.096;5.844;2023-05-15T13:56:37;10.48;;;7.38;;
49910;SDS011;35803;53.096;5.844;2023-05-15T13:59:27;11.68;;;7.63;;
49910;SDS011;35803;53.096;5.844;2023-05-15T14:02:12;9.75;;;7.35;;
49910;SDS011;35803;53.096;5.844;2023-05-15T14:05:03;12.73;;;7.90;;
49910;SDS011;35803;53.096;5.844;2023-05-15T14:07:48;10.93;;;7.03;;
49910;SDS011;35803;53.096;5.844;2023-05-15T14:10:33;11.60;;;7.43;;
49910;SDS011;35803;53.096;5.844;2023-05-15T14:13:19;12.82;;;7.68;;
49910;SDS011;35803;53.096;5.844;2023-05-15T14:16:05;10.38;;;7.30;;
49910;SDS011;35803;53.096;5.844;2023-05-15T14:18:50;14.23;;;7.78;;
49910;SDS011;35803;53.096;5.844;2023-05-15T14:21:35;12.52;;;8.05;;
49910;SDS011;35803;53.096;5.844;2023-05-15T14:24:24;12.55;;;8.18;;
49910;SDS011;35803;53.096;5.844;2023-05-15T14:27:13;13.13;;;8.27;;
49910;SDS011;35803;53.096;5.844;2023-05-15T14:29:59;12.05;;;7.70;;
49910;SDS011;35803;53.096;5.844;2023-05-15T14:32:44;13.18;;;7.93;;
49910;SDS011;35803;53.096;5.844;2023-05-15T14:35:32;14.60;;;8.85;;
49910;SDS011;35803;53.096;5.844;2023-05-15T14:38:17;14.45;;;9.02;;
49910;SDS011;35803;53.096;5.844;2023-05-15T14:41:01;16.33;;;9.80;;
49910;SDS011;35803;53.096;5.844;2023-05-15T14:43:46;15.57;;;10.00;;
49910;SDS011;35803;53.096;5.844;2023-05-15T14:46:40;15.98;;;10.18;;
49910;SDS011;35803;53.096;5.844;2023-05-15T14:49:25;16.13;;;9.18;;
49910;SDS011;35803;53.096;5.844;2023-05-15T14:52:10;15.82;;;9.70;;
49910;SDS011;35803;53.096;5.844;2023-05-15T14:54:57;17.20;;;10.25;;
49910;SDS011;35803;53.096;5.844;2023-05-15T14:57:49;16.13;;;10.10;;
49910;SDS011;35803;53.096;5.844;2023-05-15T15:00:37;16.92;;;10.23;;
49910;SDS011;35803;53.096;5.844;2023-05-15T15:03:23;13.90;;;9.07;;
49910;SDS011;35803;53.096;5.844;2023-05-15T15:06:07;16.85;;;10.07;;
49910;SDS011;35803;53.096;5.844;2023-05-15T15:08:52;15.60;;;9.75;;
49910;SDS011;35803;53.096;5.844;2023-05-15T15:11:36;14.07;;;9.00;;
49910;SDS011;35803;53.096;5.844;2023-05-15T15:14:24;14.50;;;8.32;;
49910;SDS011;35803;53.096;5.844;2023-05-15T15:17:08;15.98;;;9.45;;
49910;SDS011;35803;53.096;5.844;2023-05-15T15:19:52;12.73;;;8.40;;
49910;SDS011;35803;53.096;5.844;2023-05-15T15:22:37;14.57;;;8.43;;
49910;SDS011;35803;53.096;5.844;2023-05-15T15:25:22;11.63;;;7.85;;
49910;SDS011;35803;53.096;5.844;2023-05-15T15:28:10;12.75;;;8.40;;
49910;SDS011;35803;53.096;5.844;2023-05-15T15:30:54;14.40;;;8.95;;
49910;SDS011;35803;53.096;5.844;2023-05-15T15:33:38;11.75;;;7.43;;
49910;SDS011;35803;53.096;5.844;2023-05-15T15:36:24;14.20;;;8.00;;
49910;SDS011;35803;53.096;5.844;2023-05-15T15:39:09;11.18;;;7.07;;
49910;SDS011;35803;53.096;5.844;2023-05-15T15:41:55;11.00;;;7.00;;
49910;SDS011;35803;53.096;5.844;2023-05-15T15:44:39;9.75;;;6.80;;
49910;SDS011;35803;53.096;5.844;2023-05-15T15:47:24;10.88;;;6.75;;
49910;SDS011;35803;53.096;5.844;2023-05-15T15:50:08;12.05;;;7.55;;
49910;SDS011;35803;53.096;5.844;2023-05-15T15:52:53;10.48;;;7.03;;
49910;SDS011;35803;53.096;5.844;2023-05-15T15:55:37;12.23;;;7.57;;
49910;SDS011;35803;53.096;5.844;2023-05-15T15:58:21;10.50;;;6.63;;
49910;SDS011;35803;53.096;5.844;2023-05-15T16:01:05;10.77;;;6.78;;
49910;SDS011;35803;53.096;5.844;2023-05-15T16:03:50;8.90;;;5.90;;
49910;SDS011;35803;53.096;5.844;2023-05-15T16:06:33;8.52;;;5.88;;
49910;SDS011;35803;53.096;5.844;2023-05-15T16:09:18;7.65;;;5.00;;
49910;SDS011;35803;53.096;5.844;2023-05-15T16:12:02;6.97;;;4.70;;
49910;SDS011;35803;53.096;5.844;2023-05-15T16:14:47;7.97;;;5.35;;
49910;SDS011;35803;53.096;5.844;2023-05-15T16:17:31;6.40;;;4.55;;
49910;SDS011;35803;53.096;5.844;2023-05-15T16:20:17;7.90;;;5.00;;
49910;SDS011;35803;53.096;5.844;2023-05-15T16:23:01;8.85;;;5.57;;
49910;SDS011;35803;53.096;5.844;2023-05-15T16:25:46;8.27;;;5.90;;
49910;SDS011;35803;53.096;5.844;2023-05-15T16:28:33;9.43;;;6.13;;
49910;SDS011;35803;53.096;5.844;2023-05-15T16:31:18;9.23;;;5.93;;
49910;SDS011;35803;53.096;5.844;2023-05-15T16:34:04;9.52;;;5.63;;
49910;SDS011;35803;53.096;5.844;2023-05-15T16:36:48;9.45;;;5.85;;
49910;SDS011;35803;53.096;5.844;2023-05-15T16:39:35;8.65;;;5.95;;
49910;SDS011;35803;53.096;5.844;2023-05-15T16:42:21;9.63;;;5.70;;
49910;SDS011;35803;53.096;5.844;2023-05-15T16:45:06;10.00;;;5.38;;
49910;SDS011;35803;53.096;5.844;2023-05-15T16:47:51;9.93;;;5.95;;
49910;SDS011;35803;53.096;5.844;2023-05-15T16:50:40;9.82;;;6.10;;